createdAt,value
2023-03-03T00:03:12.519Z,21.70
2023-03-03T00:08:14.009Z,21.70
2023-03-03T00:13:15.408Z,21.80
2023-03-03T00:18:16.804Z,21.80
2023-03-03T00:23:18.245Z,21.80
2023-03-03T00:28:19.654Z,21.70
2023-03-03T00:33:21.061Z,21.70
2023-03-03T00:38:22.526Z,21.80
2023-03-03T00:43:23.932Z,21.70
2023-03-03T00:48:25.347Z,21.70
2023-03-03T00:53:26.757Z,21.70
2023-03-03T00:58:28.166Z,21.80
2023-03-03T01:03:29.580Z,21.90
2023-03-03T01:08:31.010Z,22.00
2023-03-03T01:13:32.421Z,22.00
2023-03-03T01:18:33.846Z,22.10
2023-03-03T01:23:35.270Z,22.10
2023-03-03T01:28:36.707Z,22.10
2023-03-03T01:33:38.111Z,22.10
2023-03-03T01:38:39.516Z,22.10
2023-03-03T01:43:40.914Z,22.00
2023-03-03T01:48:42.352Z,22.00
2023-03-03T01:53:43.758Z,21.90
2023-03-03T01:58:45.197Z,21.90
2023-03-03T02:03:46.617Z,21.80
2023-03-03T02:08:48.062Z,21.70
2023-03-03T02:13:49.521Z,21.70
2023-03-03T02:18:50.916Z,21.70
2023-03-03T02:23:52.383Z,21.60
2023-03-03T02:28:53.792Z,21.60
2023-03-03T02:33:55.226Z,21.50
2023-03-03T02:38:56.650Z,21.50
2023-03-03T02:43:58.078Z,21.60
2023-03-03T02:48:59.481Z,21.60
2023-03-03T02:54:00.869Z,21.60
2023-03-03T02:59:02.301Z,21.70
2023-03-03T03:04:03.751Z,21.60
2023-03-03T03:09:05.173Z,21.70
2023-03-03T03:14:06.607Z,21.60
2023-03-03T03:19:08.087Z,21.60
2023-03-03T03:24:09.501Z,21.60
2023-03-03T03:29:10.916Z,21.50
2023-03-03T03:34:12.318Z,21.50
2023-03-03T03:39:13.726Z,21.50
2023-03-03T03:44:15.137Z,21.40
2023-03-03T03:49:16.656Z,21.50
2023-03-03T03:54:18.055Z,21.40
2023-03-03T03:59:19.474Z,21.40
2023-03-03T04:04:20.886Z,21.30
2023-03-03T04:09:22.522Z,21.30
2023-03-03T04:14:24.058Z,21.30
2023-03-03T04:19:25.540Z,21.30
2023-03-03T04:24:26.944Z,21.30
2023-03-03T04:29:28.356Z,21.30
2023-03-03T04:34:29.768Z,21.30
2023-03-03T04:39:31.189Z,21.20
2023-03-03T04:44:32.581Z,21.20
2023-03-03T04:49:33.979Z,21.20
2023-03-03T04:54:35.380Z,21.40
2023-03-03T04:59:36.798Z,21.50
2023-03-03T05:04:38.290Z,21.70
2023-03-03T05:09:39.734Z,21.90
2023-03-03T05:14:41.133Z,22.00
2023-03-03T05:19:42.681Z,22.10
2023-03-03T05:24:44.100Z,22.10
2023-03-03T05:29:45.500Z,22.20
2023-03-03T05:34:46.924Z,22.10
2023-03-03T05:39:48.350Z,22.10
2023-03-03T05:44:49.754Z,22.10
2023-03-03T05:49:51.160Z,22.00
2023-03-03T05:54:52.584Z,22.00
2023-03-03T05:59:53.992Z,21.90
2023-03-03T06:04:55.384Z,21.80
2023-03-03T06:09:56.796Z,21.70
2023-03-03T06:14:58.202Z,21.70
2023-03-03T06:19:59.589Z,21.60
2023-03-03T06:25:00.976Z,21.60
2023-03-03T06:30:02.393Z,21.50
2023-03-03T06:35:03.857Z,21.50
2023-03-03T06:40:05.244Z,21.40
2023-03-03T06:45:06.656Z,21.40
2023-03-03T06:50:08.091Z,21.40
2023-03-03T06:55:09.502Z,21.40
2023-03-03T07:00:10.893Z,21.30
2023-03-03T07:05:12.292Z,21.30
2023-03-03T07:10:13.758Z,21.30
2023-03-03T07:15:15.177Z,21.30
2023-03-03T07:20:16.585Z,21.30
2023-03-03T07:25:17.993Z,21.30
2023-03-03T07:30:19.398Z,21.30
2023-03-03T07:35:20.825Z,21.30
2023-03-03T07:40:22.266Z,21.30
2023-03-03T07:45:23.759Z,21.40
2023-03-03T07:50:25.193Z,21.50
2023-03-03T07:55:26.613Z,21.60
2023-03-03T08:00:28.100Z,21.60
2023-03-03T08:05:29.580Z,21.70
2023-03-03T08:10:31.123Z,21.70
2023-03-03T08:15:32.664Z,21.70
2023-03-03T08:20:34.107Z,21.60
2023-03-03T08:25:35.511Z,21.60
2023-03-03T08:30:36.928Z,21.60
2023-03-03T08:35:38.415Z,21.50
2023-03-03T08:40:39.903Z,21.50
2023-03-03T08:45:41.320Z,21.40
2023-03-03T08:50:42.726Z,21.40
2023-03-03T08:55:44.256Z,21.40
2023-03-03T09:00:48.328Z,21.40
2023-03-03T09:05:50.686Z,21.40
2023-03-03T09:10:52.092Z,21.30
2023-03-03T09:15:53.503Z,21.30
2023-03-03T09:20:54.917Z,21.30
2023-03-03T09:25:56.313Z,21.40
2023-03-03T09:30:57.747Z,21.40
2023-03-03T09:35:59.201Z,21.50
2023-03-03T09:41:00.615Z,21.50
2023-03-03T09:46:02.030Z,21.50
2023-03-03T09:51:03.427Z,21.60
2023-03-03T09:56:04.849Z,21.60
2023-03-03T10:01:06.252Z,21.60
2023-03-03T10:06:07.641Z,21.70
2023-03-03T10:11:09.078Z,21.70
2023-03-03T10:16:10.529Z,21.70
2023-03-03T10:21:11.943Z,21.70
2023-03-03T10:26:13.362Z,21.70
2023-03-03T10:31:18.077Z,21.70
2023-03-03T10:36:20.402Z,21.70
2023-03-03T10:41:21.827Z,21.70
2023-03-03T10:46:23.247Z,21.80
2023-03-03T10:51:24.666Z,21.80
2023-03-03T10:56:26.087Z,21.80
2023-03-03T11:01:27.547Z,21.80
2023-03-03T11:06:29.058Z,21.90
2023-03-03T11:11:30.489Z,21.90
2023-03-03T11:16:31.989Z,21.90
2023-03-03T11:21:33.426Z,22.00
2023-03-03T11:26:34.906Z,22.10
2023-03-03T11:31:36.329Z,22.40
2023-03-03T11:36:37.731Z,22.80
2023-03-03T11:41:39.139Z,23.20
2023-03-03T11:46:40.560Z,23.60
2023-03-03T11:51:41.974Z,23.90
2023-03-03T11:56:43.401Z,24.20
2023-03-03T12:01:44.819Z,24.30
2023-03-03T12:06:46.267Z,24.40
2023-03-03T12:11:47.677Z,24.30
2023-03-03T12:16:49.082Z,24.40
2023-03-03T12:21:50.564Z,24.30
2023-03-03T12:26:52.023Z,24.20
2023-03-03T12:31:53.582Z,24.10
2023-03-03T12:36:55.102Z,23.90
2023-03-03T12:41:56.538Z,23.80
2023-03-03T12:46:58.021Z,23.70
2023-03-03T12:51:59.491Z,23.50
2023-03-03T12:57:00.957Z,23.40
2023-03-03T13:02:02.417Z,23.40
2023-03-03T13:07:03.891Z,23.40
2023-03-03T13:12:05.483Z,23.50
2023-03-03T13:17:07.111Z,23.60
2023-03-03T13:22:08.726Z,23.70
2023-03-03T13:27:10.366Z,23.80
2023-03-03T13:32:11.840Z,23.90
2023-03-03T13:37:13.270Z,23.90
2023-03-03T13:42:14.717Z,23.90
2023-03-03T13:47:16.208Z,23.80
2023-03-03T13:52:17.675Z,23.80
2023-03-03T13:57:19.123Z,23.70
2023-03-03T14:02:20.599Z,23.70
2023-03-03T14:07:22.107Z,23.50
2023-03-03T14:12:23.620Z,23.40
2023-03-03T14:17:25.096Z,23.40
2023-03-03T14:22:27.656Z,23.40
2023-03-03T14:27:29.147Z,23.50
2023-03-03T14:32:44.400Z,23.50
2023-03-03T14:37:46.451Z,23.60
2023-03-03T14:42:47.905Z,23.70
2023-03-03T14:47:49.364Z,23.70
2023-03-03T14:52:50.911Z,23.80
2023-03-03T14:57:52.383Z,23.70
2023-03-03T15:02:53.811Z,23.70
2023-03-03T15:07:55.295Z,23.60
2023-03-03T15:12:56.862Z,23.50
2023-03-03T15:17:58.371Z,23.40
2023-03-03T15:23:01.889Z,23.30
2023-03-03T15:28:03.344Z,23.20
2023-03-03T15:33:04.840Z,23.10
2023-03-03T15:38:06.312Z,23.10
2023-03-03T15:43:07.798Z,23.00
2023-03-03T15:48:09.245Z,22.90
2023-03-03T15:53:10.679Z,22.80
2023-03-03T15:58:12.125Z,22.70
2023-03-03T16:03:13.576Z,22.60
2023-03-03T16:08:15.014Z,22.60
2023-03-03T16:13:16.438Z,22.50
2023-03-03T16:18:17.831Z,22.50
2023-03-03T16:23:19.249Z,22.40
2023-03-03T16:28:20.685Z,22.30
2023-03-03T16:33:22.103Z,22.30
2023-03-03T16:38:23.523Z,22.20
2023-03-03T16:43:24.964Z,22.20
2023-03-03T16:48:26.373Z,22.20
2023-03-03T16:53:27.778Z,22.10
2023-03-03T16:58:29.191Z,22.10
2023-03-03T17:03:30.631Z,22.10
2023-03-03T17:08:32.048Z,22.00
2023-03-03T17:13:33.455Z,22.00
2023-03-03T17:18:36.137Z,22.00
2023-03-03T17:23:40.506Z,22.00
2023-03-03T17:28:42.073Z,22.00
2023-03-03T17:33:43.490Z,22.10
2023-03-03T17:38:44.912Z,22.30
2023-03-03T17:43:46.329Z,22.50
2023-03-03T17:48:47.726Z,22.70
2023-03-03T17:53:49.153Z,22.80
2023-03-03T17:58:50.668Z,22.90
2023-03-03T18:03:52.276Z,22.90
2023-03-03T18:09:01.985Z,22.90
2023-03-03T18:14:13.169Z,22.90
2023-03-03T18:19:14.577Z,22.80
2023-03-03T18:24:15.984Z,22.70
2023-03-03T18:29:17.411Z,22.70
2023-03-03T18:34:18.821Z,22.60
2023-03-03T18:39:20.410Z,22.50
2023-03-03T18:44:21.912Z,22.50
2023-03-03T18:49:23.378Z,22.40
2023-03-03T18:54:24.777Z,22.30
2023-03-03T18:59:26.185Z,22.20
2023-03-03T19:04:27.633Z,22.20
2023-03-03T19:09:29.092Z,22.20
2023-03-03T19:14:30.493Z,22.20
2023-03-03T19:19:31.909Z,22.30
2023-03-03T19:24:33.312Z,22.40
2023-03-03T19:29:34.743Z,22.40
2023-03-03T19:34:36.222Z,22.50
2023-03-03T19:39:37.719Z,22.50
2023-03-03T19:44:39.299Z,22.50
2023-03-03T19:49:40.747Z,22.50
2023-03-03T19:54:42.281Z,22.50
2023-03-03T19:59:44.821Z,22.50
2023-03-03T20:04:46.358Z,22.50
2023-03-03T20:09:47.930Z,22.40
2023-03-03T20:14:49.417Z,22.40
2023-03-03T20:19:51.025Z,22.30
2023-03-03T20:24:52.526Z,22.30
2023-03-03T20:29:53.921Z,22.20
2023-03-03T20:34:55.325Z,22.20
2023-03-03T20:39:56.743Z,22.20
2023-03-03T20:44:58.162Z,22.10
2023-03-03T20:49:59.613Z,22.10
2023-03-03T20:55:01.146Z,22.10
2023-03-03T21:00:02.568Z,22.10
2023-03-03T21:05:03.980Z,22.10
2023-03-03T21:10:05.402Z,22.20
2023-03-03T21:15:06.811Z,22.20
2023-03-03T21:20:08.210Z,22.20
2023-03-03T21:25:09.621Z,22.20
2023-03-03T21:30:11.032Z,22.20
2023-03-03T21:35:12.439Z,22.20
2023-03-03T21:40:13.844Z,22.20
2023-03-03T21:45:15.261Z,22.20
2023-03-03T21:50:16.668Z,22.20
2023-03-03T21:55:18.084Z,22.20
2023-03-03T22:00:19.512Z,22.10
2023-03-03T22:05:20.928Z,22.10
2023-03-03T22:10:22.344Z,22.10
2023-03-03T22:15:23.767Z,22.10
2023-03-03T22:20:25.165Z,22.10
2023-03-03T22:25:26.588Z,22.00
2023-03-03T22:30:27.997Z,22.00
2023-03-03T22:35:29.420Z,22.00
2023-03-03T22:40:30.870Z,21.90
2023-03-03T22:45:32.293Z,21.90
2023-03-03T22:50:33.701Z,21.90
2023-03-03T22:55:35.285Z,21.90
2023-03-03T23:00:36.727Z,21.90
2023-03-03T23:05:38.181Z,21.90
2023-03-03T23:10:39.640Z,21.90
2023-03-03T23:15:41.158Z,21.90
2023-03-03T23:20:42.601Z,21.80
2023-03-03T23:25:44.011Z,21.80
2023-03-03T23:30:45.442Z,21.80
2023-03-03T23:35:46.908Z,21.90
2023-03-03T23:40:48.348Z,21.90
2023-03-03T23:45:49.814Z,21.90
2023-03-03T23:50:51.247Z,21.80
2023-03-03T23:55:52.659Z,21.80
